sensor_id;sensor_type;location;lat;lon;timestamp;pressure;altitude;pressure_sealevel;temperature;humidity
55517;BME280;41724;51.176;-0.708;2023-09-19T00:00:57;100383.70;;;13.28;77.86
55517;BME280;41724;51.176;-0.708;2023-09-19T00:03:24;100380.38;;;13.59;75.94
55517;BME280;41724;51.176;-0.708;2023-09-19T00:05:51;100383.31;;;12.58;79.14
55517;BME280;41724;51.176;-0.708;2023-09-19T00:08:18;100381.64;;;12.11;82.96
55517;BME280;41724;51.176;-0.708;2023-09-19T00:10:45;100384.93;;;12.71;79.73
55517;BME280;41724;51.176;-0.708;2023-09-19T00:13:12;100377.17;;;12.46;79.67
55517;BME280;41724;51.176;-0.708;2023-09-19T00:15:41;100377.71;;;12.29;81.87
55517;BME280;41724;51.176;-0.708;2023-09-19T00:18:09;100375.98;;;12.04;83.64
55517;BME280;41724;51.176;-0.708;2023-09-19T00:20:36;100368.87;;;12.37;80.33
55517;BME280;41724;51.176;-0.708;2023-09-19T00:23:03;100373.37;;;13.12;78.24
55517;BME280;41724;51.176;-0.708;2023-09-19T00:25:31;100371.37;;;12.67;77.76
55517;BME280;41724;51.176;-0.708;2023-09-19T00:27:57;100370.96;;;13.05;77.28
55517;BME280;41724;51.176;-0.708;2023-09-19T00:30:24;100370.20;;;12.34;79.55
55517;BME280;41724;51.176;-0.708;2023-09-19T00:32:51;100369.78;;;12.84;78.09
55517;BME280;41724;51.176;-0.708;2023-09-19T00:35:18;100366.23;;;13.21;76.43
55517;BME280;41724;51.176;-0.708;2023-09-19T00:37:45;100364.76;;;13.99;72.42
55517;BME280;41724;51.176;-0.708;2023-09-19T00:40:12;100365.99;;;13.67;73.90
55517;BME280;41724;51.176;-0.708;2023-09-19T00:42:39;100375.46;;;13.35;74.62
55517;BME280;41724;51.176;-0.708;2023-09-19T00:45:06;100379.05;;;12.72;77.42
55517;BME280;41724;51.176;-0.708;2023-09-19T00:47:33;100379.14;;;13.58;74.11
55517;BME280;41724;51.176;-0.708;2023-09-19T00:50:00;100380.62;;;13.58;73.76
55517;BME280;41724;51.176;-0.708;2023-09-19T00:52:29;100377.94;;;13.47;76.12
55517;BME280;41724;51.176;-0.708;2023-09-19T00:54:57;100381.97;;;12.51;79.91
55517;BME280;41724;51.176;-0.708;2023-09-19T00:57:24;100383.36;;;13.12;76.61
55517;BME280;41724;51.176;-0.708;2023-09-19T00:59:54;100386.75;;;12.89;76.85
55517;BME280;41724;51.176;-0.708;2023-09-19T01:02:21;100387.38;;;13.54;74.36
55517;BME280;41724;51.176;-0.708;2023-09-19T01:04:48;100393.12;;;13.08;75.80
55517;BME280;41724;51.176;-0.708;2023-09-19T01:07:15;100396.39;;;13.41;77.07
55517;BME280;41724;51.176;-0.708;2023-09-19T01:09:42;100397.92;;;12.69;77.88
55517;BME280;41724;51.176;-0.708;2023-09-19T01:12:11;100397.02;;;13.08;76.06
55517;BME280;41724;51.176;-0.708;2023-09-19T01:14:49;100389.26;;;13.59;74.71
55517;BME280;41724;51.176;-0.708;2023-09-19T01:17:27;100396.24;;;13.72;73.11
55517;BME280;41724;51.176;-0.708;2023-09-19T01:20:29;100395.97;;;13.56;75.10
55517;BME280;41724;51.176;-0.708;2023-09-19T01:23:09;100388.73;;;13.50;73.80
55517;BME280;41724;51.176;-0.708;2023-09-19T01:26:21;100385.69;;;14.08;71.50
55517;BME280;41724;51.176;-0.708;2023-09-19T01:28:53;100385.49;;;13.62;74.21
55517;BME280;41724;51.176;-0.708;2023-09-19T01:31:22;100385.19;;;13.56;74.39
55517;BME280;41724;51.176;-0.708;2023-09-19T01:33:56;100381.96;;;13.46;73.85
55517;BME280;41724;51.176;-0.708;2023-09-19T01:36:23;100380.36;;;14.04;73.89
55517;BME280;41724;51.176;-0.708;2023-09-19T01:38:51;100379.51;;;13.42;75.20
55517;BME280;41724;51.176;-0.708;2023-09-19T01:41:25;100379.51;;;13.70;75.11
55517;BME280;41724;51.176;-0.708;2023-09-19T01:43:53;100378.46;;;13.40;75.73
55517;BME280;41724;51.176;-0.708;2023-09-19T01:46:24;100379.49;;;13.57;73.90
55517;BME280;41724;51.176;-0.708;2023-09-19T01:49:00;100374.73;;;14.48;70.65
55517;BME280;41724;51.176;-0.708;2023-09-19T01:51:37;100375.97;;;14.46;71.21
55517;BME280;41724;51.176;-0.708;2023-09-19T01:54:10;100378.13;;;14.66;69.34
55517;BME280;41724;51.176;-0.708;2023-09-19T01:56:45;100377.46;;;13.86;72.99
55517;BME280;41724;51.176;-0.708;2023-09-19T01:59:20;100379.18;;;13.71;73.90
55517;BME280;41724;51.176;-0.708;2023-09-19T02:01:48;100374.76;;;13.81;72.33
55517;BME280;41724;51.176;-0.708;2023-09-19T02:04:16;100372.01;;;13.16;74.49
55517;BME280;41724;51.176;-0.708;2023-09-19T02:06:43;100379.14;;;12.60;78.45
55517;BME280;41724;51.176;-0.708;2023-09-19T02:09:11;100386.07;;;12.96;77.12
55517;BME280;41724;51.176;-0.708;2023-09-19T02:11:38;100380.80;;;12.69;77.90
55517;BME280;41724;51.176;-0.708;2023-09-19T02:14:05;100385.08;;;13.13;76.74
55517;BME280;41724;51.176;-0.708;2023-09-19T02:16:32;100392.34;;;14.19;73.17
55517;BME280;41724;51.176;-0.708;2023-09-19T02:18:59;100391.88;;;13.09;75.23
55517;BME280;41724;51.176;-0.708;2023-09-19T02:21:26;100384.70;;;13.04;76.40
55517;BME280;41724;51.176;-0.708;2023-09-19T02:23:53;100386.09;;;13.84;75.66
55517;BME280;41724;51.176;-0.708;2023-09-19T02:26:20;100384.79;;;13.12;77.74
55517;BME280;41724;51.176;-0.708;2023-09-19T02:28:47;100385.23;;;13.47;75.93
55517;BME280;41724;51.176;-0.708;2023-09-19T02:31:14;100386.19;;;12.78;79.24
55517;BME280;41724;51.176;-0.708;2023-09-19T02:33:41;100383.86;;;12.25;81.97
55517;BME280;41724;51.176;-0.708;2023-09-19T02:36:08;100386.45;;;13.17;78.05
55517;BME280;41724;51.176;-0.708;2023-09-19T02:38:35;100391.13;;;13.83;75.70
55517;BME280;41724;51.176;-0.708;2023-09-19T02:41:02;100385.24;;;13.70;74.97
55517;BME280;41724;51.176;-0.708;2023-09-19T02:43:29;100390.04;;;13.46;75.23
55517;BME280;41724;51.176;-0.708;2023-09-19T02:45:56;100389.53;;;13.40;77.11
55517;BME280;41724;51.176;-0.708;2023-09-19T02:48:23;100389.96;;;13.25;79.30
55517;BME280;41724;51.176;-0.708;2023-09-19T02:50:51;100391.82;;;12.23;84.38
55517;BME280;41724;51.176;-0.708;2023-09-19T02:53:19;100395.31;;;12.39;84.77
55517;BME280;41724;51.176;-0.708;2023-09-19T02:55:47;100391.55;;;12.65;84.31
55517;BME280;41724;51.176;-0.708;2023-09-19T02:58:14;100385.09;;;13.43;78.47
55517;BME280;41724;51.176;-0.708;2023-09-19T03:00:41;100389.76;;;13.25;80.01
55517;BME280;41724;51.176;-0.708;2023-09-19T03:03:09;100384.84;;;13.16;80.12
55517;BME280;41724;51.176;-0.708;2023-09-19T03:05:36;100378.87;;;13.68;78.89
55517;BME280;41724;51.176;-0.708;2023-09-19T03:08:03;100377.27;;;12.84;82.77
55517;BME280;41724;51.176;-0.708;2023-09-19T03:10:30;100368.81;;;13.14;82.13
55517;BME280;41724;51.176;-0.708;2023-09-19T03:12:58;100364.87;;;13.29;82.22
55517;BME280;41724;51.176;-0.708;2023-09-19T03:15:25;100371.71;;;13.00;86.08
55517;BME280;41724;51.176;-0.708;2023-09-19T03:17:52;100367.34;;;13.24;83.03
55517;BME280;41724;51.176;-0.708;2023-09-19T03:20:19;100363.44;;;13.46;82.07
55517;BME280;41724;51.176;-0.708;2023-09-19T03:22:46;100361.71;;;12.75;86.59
55517;BME280;41724;51.176;-0.708;2023-09-19T03:25:13;100361.86;;;13.27;84.72
55517;BME280;41724;51.176;-0.708;2023-09-19T03:27:40;100362.66;;;13.01;85.49
55517;BME280;41724;51.176;-0.708;2023-09-19T03:30:08;100362.73;;;12.94;87.16
55517;BME280;41724;51.176;-0.708;2023-09-19T03:32:35;100360.12;;;12.35;91.12
55517;BME280;41724;51.176;-0.708;2023-09-19T03:35:02;100354.65;;;12.64;90.63
55517;BME280;41724;51.176;-0.708;2023-09-19T03:37:30;100351.08;;;12.97;86.68
55517;BME280;41724;51.176;-0.708;2023-09-19T03:39:57;100350.16;;;11.92;92.26
55517;BME280;41724;51.176;-0.708;2023-09-19T03:42:24;100344.78;;;13.11;87.17
55517;BME280;41724;51.176;-0.708;2023-09-19T03:44:51;100341.38;;;13.35;87.20
55517;BME280;41724;51.176;-0.708;2023-09-19T03:47:18;100345.67;;;12.72;89.06
55517;BME280;41724;51.176;-0.708;2023-09-19T03:49:45;100335.74;;;13.20;89.48
55517;BME280;41724;51.176;-0.708;2023-09-19T03:52:12;100337.16;;;13.05;87.82
55517;BME280;41724;51.176;-0.708;2023-09-19T03:54:39;100334.93;;;13.39;88.19
55517;BME280;41724;51.176;-0.708;2023-09-19T03:57:05;100323.45;;;13.19;87.72
55517;BME280;41724;51.176;-0.708;2023-09-19T03:59:32;100317.66;;;13.06;88.26
55517;BME280;41724;51.176;-0.708;2023-09-19T04:01:59;100311.26;;;13.08;89.17
55517;BME280;41724;51.176;-0.708;2023-09-19T04:04:26;100310.52;;;13.31;88.24
55517;BME280;41724;51.176;-0.708;2023-09-19T04:06:53;100308.12;;;13.13;88.98
55517;BME280;41724;51.176;-0.708;2023-09-19T04:09:20;100310.11;;;13.49;87.78
55517;BME280;41724;51.176;-0.708;2023-09-19T04:11:47;100306.33;;;13.23;88.39
55517;BME280;41724;51.176;-0.708;2023-09-19T04:14:14;100300.71;;;13.54;87.53
55517;BME280;41724;51.176;-0.708;2023-09-19T04:16:41;100295.31;;;14.22;83.83
55517;BME280;41724;51.176;-0.708;2023-09-19T04:19:08;100289.17;;;13.96;85.39
55517;BME280;41724;51.176;-0.708;2023-09-19T04:21:35;100286.99;;;13.72;86.84
55517;BME280;41724;51.176;-0.708;2023-09-19T04:24:02;100278.91;;;13.46;87.44
55517;BME280;41724;51.176;-0.708;2023-09-19T04:26:29;100275.36;;;13.41;89.60
55517;BME280;41724;51.176;-0.708;2023-09-19T04:28:56;100272.56;;;12.83;91.06
55517;BME280;41724;51.176;-0.708;2023-09-19T04:31:23;100273.62;;;12.78;92.23
55517;BME280;41724;51.176;-0.708;2023-09-19T04:33:50;100267.82;;;13.31;89.76
55517;BME280;41724;51.176;-0.708;2023-09-19T04:36:17;100268.86;;;13.62;87.87
55517;BME280;41724;51.176;-0.708;2023-09-19T04:38:44;100268.87;;;13.52;90.63
55517;BME280;41724;51.176;-0.708;2023-09-19T04:41:11;100263.11;;;14.33;85.46
55517;BME280;41724;51.176;-0.708;2023-09-19T04:43:39;100261.93;;;14.14;85.01
55517;BME280;41724;51.176;-0.708;2023-09-19T04:46:06;100260.17;;;13.63;87.78
55517;BME280;41724;51.176;-0.708;2023-09-19T04:48:33;100254.33;;;14.50;84.68
55517;BME280;41724;51.176;-0.708;2023-09-19T04:51:00;100253.10;;;14.65;83.09
55517;BME280;41724;51.176;-0.708;2023-09-19T04:53:27;100253.11;;;13.82;87.50
55517;BME280;41724;51.176;-0.708;2023-09-19T04:55:54;100253.07;;;14.23;87.12
55517;BME280;41724;51.176;-0.708;2023-09-19T04:58:22;100254.00;;;14.29;88.52
55517;BME280;41724;51.176;-0.708;2023-09-19T05:00:49;100247.21;;;14.52;86.85
55517;BME280;41724;51.176;-0.708;2023-09-19T05:03:16;100252.83;;;15.20;84.37
55517;BME280;41724;51.176;-0.708;2023-09-19T05:05:43;100248.77;;;14.80;85.61
55517;BME280;41724;51.176;-0.708;2023-09-19T05:08:10;100250.74;;;14.63;87.00
55517;BME280;41724;51.176;-0.708;2023-09-19T05:10:37;100251.61;;;15.20;85.49
55517;BME280;41724;51.176;-0.708;2023-09-19T05:13:04;100256.00;;;15.56;81.82
55517;BME280;41724;51.176;-0.708;2023-09-19T05:15:31;100264.59;;;14.89;85.06
55517;BME280;41724;51.176;-0.708;2023-09-19T05:17:58;100254.17;;;14.96;86.08
55517;BME280;41724;51.176;-0.708;2023-09-19T05:20:25;100252.89;;;14.91;87.55
55517;BME280;41724;51.176;-0.708;2023-09-19T05:22:58;100258.91;;;14.32;89.91
55517;BME280;41724;51.176;-0.708;2023-09-19T05:25:25;100252.85;;;14.80;88.06
55517;BME280;41724;51.176;-0.708;2023-09-19T05:27:53;100256.84;;;14.64;87.85
55517;BME280;41724;51.176;-0.708;2023-09-19T05:30:20;100251.86;;;14.18;89.94
55517;BME280;41724;51.176;-0.708;2023-09-19T05:32:47;100246.54;;;14.76;88.96
55517;BME280;41724;51.176;-0.708;2023-09-19T05:35:14;100253.76;;;15.35;84.93
55517;BME280;41724;51.176;-0.708;2023-09-19T05:37:41;100254.33;;;14.74;86.61
55517;BME280;41724;51.176;-0.708;2023-09-19T05:40:09;100257.61;;;14.45;89.08
55517;BME280;41724;51.176;-0.708;2023-09-19T05:42:37;100251.48;;;15.79;85.17
55517;BME280;41724;51.176;-0.708;2023-09-19T05:45:05;100249.13;;;14.69;90.03
55517;BME280;41724;51.176;-0.708;2023-09-19T05:47:33;100253.87;;;15.31;89.20
55517;BME280;41724;51.176;-0.708;2023-09-19T05:50:00;100252.57;;;15.37;89.04
55517;BME280;41724;51.176;-0.708;2023-09-19T05:52:26;100240.57;;;15.28;90.46
55517;BME280;41724;51.176;-0.708;2023-09-19T05:54:53;100246.82;;;14.36;95.79
55517;BME280;41724;51.176;-0.708;2023-09-19T05:57:20;100246.68;;;14.47;99.43
55517;BME280;41724;51.176;-0.708;2023-09-19T05:59:47;100246.48;;;13.39;100.00
55517;BME280;41724;51.176;-0.708;2023-09-19T06:02:14;100248.86;;;14.37;99.70
55517;BME280;41724;51.176;-0.708;2023-09-19T06:04:41;100250.85;;;14.02;100.00
55517;BME280;41724;51.176;-0.708;2023-09-19T06:07:08;100244.96;;;14.74;99.36
55517;BME280;41724;51.176;-0.708;2023-09-19T06:09:35;100239.33;;;14.80;98.47
55517;BME280;41724;51.176;-0.708;2023-09-19T06:12:02;100240.32;;;14.95;96.41
55517;BME280;41724;51.176;-0.708;2023-09-19T06:14:29;100235.33;;;14.71;96.91
55517;BME280;41724;51.176;-0.708;2023-09-19T06:16:56;100232.75;;;14.76;98.80
55517;BME280;41724;51.176;-0.708;2023-09-19T06:19:23;100233.25;;;15.12;95.68
55517;BME280;41724;51.176;-0.708;2023-09-19T06:21:50;100238.15;;;14.41;99.19
55517;BME280;41724;51.176;-0.708;2023-09-19T06:24:17;100224.14;;;15.49;93.15
55517;BME280;41724;51.176;-0.708;2023-09-19T06:26:44;100233.34;;;14.74;94.72
55517;BME280;41724;51.176;-0.708;2023-09-19T06:29:10;100232.84;;;14.60;98.12
55517;BME280;41724;51.176;-0.708;2023-09-19T06:31:39;100232.27;;;15.01;96.90
55517;BME280;41724;51.176;-0.708;2023-09-19T06:34:06;100231.93;;;14.31;100.00
55517;BME280;41724;51.176;-0.708;2023-09-19T06:36:33;100228.40;;;14.71;100.00
55517;BME280;41724;51.176;-0.708;2023-09-19T06:39:00;100221.04;;;15.23;96.24
55517;BME280;41724;51.176;-0.708;2023-09-19T06:41:27;100210.64;;;15.06;95.20
55517;BME280;41724;51.176;-0.708;2023-09-19T06:43:54;100210.39;;;14.33;97.40
55517;BME280;41724;51.176;-0.708;2023-09-19T06:46:21;100216.87;;;14.68;97.84
55517;BME280;41724;51.176;-0.708;2023-09-19T06:48:48;100209.43;;;15.12;93.11
55517;BME280;41724;51.176;-0.708;2023-09-19T06:51:15;100201.43;;;14.80;95.93
55517;BME280;41724;51.176;-0.708;2023-09-19T06:53:42;100200.45;;;13.79;100.00
55517;BME280;41724;51.176;-0.708;2023-09-19T06:56:09;100196.46;;;14.51;98.60
55517;BME280;41724;51.176;-0.708;2023-09-19T06:58:36;100198.26;;;15.66;92.54
55517;BME280;41724;51.176;-0.708;2023-09-19T07:01:03;100189.44;;;14.69;94.86
55517;BME280;41724;51.176;-0.708;2023-09-19T07:03:30;100177.50;;;14.39;95.21
55517;BME280;41724;51.176;-0.708;2023-09-19T07:05:57;100212.10;;;14.23;97.96
55517;BME280;41724;51.176;-0.708;2023-09-19T07:08:24;100187.44;;;14.40;97.14
55517;BME280;41724;51.176;-0.708;2023-09-19T07:10:51;100191.83;;;14.45;97.44
55517;BME280;41724;51.176;-0.708;2023-09-19T07:13:18;100184.09;;;14.75;98.68
55517;BME280;41724;51.176;-0.708;2023-09-19T07:15:45;100176.19;;;13.78;100.00
55517;BME280;41724;51.176;-0.708;2023-09-19T07:18:12;100162.52;;;14.25;99.35
55517;BME280;41724;51.176;-0.708;2023-09-19T07:20:39;100164.82;;;13.61;100.00
55517;BME280;41724;51.176;-0.708;2023-09-19T07:23:06;100165.31;;;14.44;99.97
55517;BME280;41724;51.176;-0.708;2023-09-19T07:25:35;100161.89;;;14.21;100.00
55517;BME280;41724;51.176;-0.708;2023-09-19T07:28:03;100162.63;;;15.31;97.60
55517;BME280;41724;51.176;-0.708;2023-09-19T07:30:31;100161.18;;;15.03;98.34
55517;BME280;41724;51.176;-0.708;2023-09-19T07:32:58;100166.58;;;15.10;97.01
55517;BME280;41724;51.176;-0.708;2023-09-19T07:35:25;100157.06;;;15.14;98.63
55517;BME280;41724;51.176;-0.708;2023-09-19T07:37:52;100159.68;;;14.18;100.00
55517;BME280;41724;51.176;-0.708;2023-09-19T07:40:19;100184.93;;;13.70;100.00
55517;BME280;41724;51.176;-0.708;2023-09-19T07:42:46;100156.55;;;14.37;100.00
55517;BME280;41724;51.176;-0.708;2023-09-19T07:45:13;100155.94;;;13.23;100.00
55517;BME280;41724;51.176;-0.708;2023-09-19T07:47:44;100159.80;;;13.67;100.00
55517;BME280;41724;51.176;-0.708;2023-09-19T07:50:11;100170.78;;;13.89;100.00
55517;BME280;41724;51.176;-0.708;2023-09-19T07:52:38;100146.32;;;13.91;100.00
55517;BME280;41724;51.176;-0.708;2023-09-19T07:55:06;100149.38;;;13.51;100.00
55517;BME280;41724;51.176;-0.708;2023-09-19T07:57:34;100142.17;;;14.61;100.00
55517;BME280;41724;51.176;-0.708;2023-09-19T08:00:02;100147.57;;;14.05;100.00
55517;BME280;41724;51.176;-0.708;2023-09-19T08:02:29;100147.93;;;14.46;100.00
55517;BME280;41724;51.176;-0.708;2023-09-19T08:04:55;100142.79;;;13.80;100.00
55517;BME280;41724;51.176;-0.708;2023-09-19T08:07:22;100158.03;;;13.85;100.00
55517;BME280;41724;51.176;-0.708;2023-09-19T08:09:49;100151.00;;;14.00;100.00
55517;BME280;41724;51.176;-0.708;2023-09-19T08:12:16;100144.99;;;14.51;100.00
55517;BME280;41724;51.176;-0.708;2023-09-19T08:14:43;100157.89;;;14.48;100.00
55517;BME280;41724;51.176;-0.708;2023-09-19T08:17:09;100170.07;;;14.49;100.00
55517;BME280;41724;51.176;-0.708;2023-09-19T08:19:36;100150.75;;;14.88;100.00
55517;BME280;41724;51.176;-0.708;2023-09-19T08:22:04;100151.86;;;15.29;96.80
55517;BME280;41724;51.176;-0.708;2023-09-19T08:24:32;100161.16;;;14.82;99.37
55517;BME280;41724;51.176;-0.708;2023-09-19T08:26:59;100155.50;;;14.47;100.00
55517;BME280;41724;51.176;-0.708;2023-09-19T08:29:26;100153.54;;;14.55;100.00
55517;BME280;41724;51.176;-0.708;2023-09-19T08:31:53;100146.07;;;14.51;100.00
55517;BME280;41724;51.176;-0.708;2023-09-19T08:34:20;100132.72;;;14.76;100.00
55517;BME280;41724;51.176;-0.708;2023-09-19T08:36:47;100130.02;;;15.02;96.94
55517;BME280;41724;51.176;-0.708;2023-09-19T08:39:13;100121.90;;;15.10;95.84
55517;BME280;41724;51.176;-0.708;2023-09-19T08:41:41;100123.59;;;15.31;93.23
55517;BME280;41724;51.176;-0.708;2023-09-19T08:44:08;100139.35;;;15.23;95.62
55517;BME280;41724;51.176;-0.708;2023-09-19T08:46:36;100136.08;;;14.53;97.44
55517;BME280;41724;51.176;-0.708;2023-09-19T08:49:12;100141.84;;;14.55;99.01
55517;BME280;41724;51.176;-0.708;2023-09-19T08:51:43;100132.30;;;15.25;95.62
55517;BME280;41724;51.176;-0.708;2023-09-19T08:54:19;100129.50;;;15.49;94.43
55517;BME280;41724;51.176;-0.708;2023-09-19T08:56:48;100142.48;;;15.72;93.10
55517;BME280;41724;51.176;-0.708;2023-09-19T08:59:16;100135.18;;;15.73;90.83
55517;BME280;41724;51.176;-0.708;2023-09-19T09:01:48;100132.20;;;14.87;95.96
55517;BME280;41724;51.176;-0.708;2023-09-19T09:04:15;100143.81;;;14.58;95.77
55517;BME280;41724;51.176;-0.708;2023-09-19T09:06:43;100153.26;;;15.38;92.38
55517;BME280;41724;51.176;-0.708;2023-09-19T09:09:10;100150.22;;;14.75;94.96
55517;BME280;41724;51.176;-0.708;2023-09-19T09:11:38;100153.82;;;14.29;96.56
55517;BME280;41724;51.176;-0.708;2023-09-19T09:14:07;100160.01;;;14.68;95.56
55517;BME280;41724;51.176;-0.708;2023-09-19T09:16:34;100151.42;;;15.09;95.05
55517;BME280;41724;51.176;-0.708;2023-09-19T09:19:01;100151.48;;;15.07;92.68
55517;BME280;41724;51.176;-0.708;2023-09-19T09:21:28;100162.03;;;15.50;89.07
55517;BME280;41724;51.176;-0.708;2023-09-19T09:23:55;100148.79;;;15.73;89.09
55517;BME280;41724;51.176;-0.708;2023-09-19T09:26:41;100161.68;;;15.79;88.53
55517;BME280;41724;51.176;-0.708;2023-09-19T09:29:09;100151.86;;;15.95;87.77
55517;BME280;41724;51.176;-0.708;2023-09-19T09:31:36;100151.29;;;16.64;84.14
55517;BME280;41724;51.176;-0.708;2023-09-19T09:34:04;100157.42;;;15.40;88.75
55517;BME280;41724;51.176;-0.708;2023-09-19T09:36:35;100158.66;;;15.62;88.01
55517;BME280;41724;51.176;-0.708;2023-09-19T09:39:02;100153.46;;;17.00;82.64
55517;BME280;41724;51.176;-0.708;2023-09-19T09:41:36;100162.47;;;16.13;84.32
55517;BME280;41724;51.176;-0.708;2023-09-19T09:44:12;100177.75;;;15.23;88.46
55517;BME280;41724;51.176;-0.708;2023-09-19T09:46:42;100164.24;;;14.92;93.66
55517;BME280;41724;51.176;-0.708;2023-09-19T09:49:10;100163.24;;;15.31;90.82
55517;BME280;41724;51.176;-0.708;2023-09-19T09:51:37;100224.79;;;15.20;91.60
55517;BME280;41724;51.176;-0.708;2023-09-19T09:54:13;100183.62;;;15.21;92.99
55517;BME280;41724;51.176;-0.708;2023-09-19T09:56:58;100170.12;;;15.57;90.05
55517;BME280;41724;51.176;-0.708;2023-09-19T09:59:58;100157.42;;;16.07;88.86
55517;BME280;41724;51.176;-0.708;2023-09-19T10:02:26;100161.13;;;16.11;89.96
55517;BME280;41724;51.176;-0.708;2023-09-19T10:04:54;100161.73;;;16.16;87.99
55517;BME280;41724;51.176;-0.708;2023-09-19T10:07:26;100168.65;;;15.34;93.40
55517;BME280;41724;51.176;-0.708;2023-09-19T10:09:53;100157.08;;;15.66;91.33
55517;BME280;41724;51.176;-0.708;2023-09-19T10:12:20;100176.84;;;15.71;93.05
55517;BME280;41724;51.176;-0.708;2023-09-19T10:14:48;100161.11;;;16.43;88.99
55517;BME280;41724;51.176;-0.708;2023-09-19T10:17:17;100148.86;;;16.29;88.42
55517;BME280;41724;51.176;-0.708;2023-09-19T10:19:50;100154.13;;;15.61;92.75
55517;BME280;41724;51.176;-0.708;2023-09-19T10:22:21;100149.03;;;16.15;89.50
55517;BME280;41724;51.176;-0.708;2023-09-19T10:24:49;100158.52;;;16.96;85.32
55517;BME280;41724;51.176;-0.708;2023-09-19T10:27:17;100156.56;;;17.09;83.99
55517;BME280;41724;51.176;-0.708;2023-09-19T10:29:44;100157.88;;;17.31;83.84
55517;BME280;41724;51.176;-0.708;2023-09-19T10:32:15;100161.64;;;16.51;87.50
55517;BME280;41724;51.176;-0.708;2023-09-19T10:34:42;100149.84;;;16.39;89.82
55517;BME280;41724;51.176;-0.708;2023-09-19T10:37:12;100141.06;;;16.82;89.49
55517;BME280;41724;51.176;-0.708;2023-09-19T10:39:40;100144.00;;;16.08;90.81
55517;BME280;41724;51.176;-0.708;2023-09-19T10:42:07;100153.73;;;15.60;96.26
55517;BME280;41724;51.176;-0.708;2023-09-19T10:44:41;100164.38;;;15.31;97.27
55517;BME280;41724;51.176;-0.708;2023-09-19T10:47:09;100145.97;;;15.82;96.19
55517;BME280;41724;51.176;-0.708;2023-09-19T10:49:43;100159.32;;;16.37;92.41
55517;BME280;41724;51.176;-0.708;2023-09-19T10:52:10;100146.76;;;15.58;96.99
55517;BME280;41724;51.176;-0.708;2023-09-19T10:54:39;100146.12;;;15.36;98.17
55517;BME280;41724;51.176;-0.708;2023-09-19T10:57:19;100150.96;;;15.47;98.21
55517;BME280;41724;51.176;-0.708;2023-09-19T11:00:01;100156.83;;;16.54;93.30
55517;BME280;41724;51.176;-0.708;2023-09-19T11:02:29;100156.37;;;15.98;96.10
55517;BME280;41724;51.176;-0.708;2023-09-19T11:05:11;100158.04;;;15.71;98.32
55517;BME280;41724;51.176;-0.708;2023-09-19T11:07:57;100165.75;;;16.70;94.77
55517;BME280;41724;51.176;-0.708;2023-09-19T11:10:44;100168.27;;;16.16;97.60
55517;BME280;41724;51.176;-0.708;2023-09-19T11:13:28;100178.37;;;14.98;100.00
55517;BME280;41724;51.176;-0.708;2023-09-19T11:16:21;100175.12;;;14.97;100.00
55517;BME280;41724;51.176;-0.708;2023-09-19T11:18:52;100162.04;;;15.13;100.00
55517;BME280;41724;51.176;-0.708;2023-09-19T11:21:53;100164.80;;;16.00;100.00
55517;BME280;41724;51.176;-0.708;2023-09-19T11:24:28;100149.24;;;15.03;100.00
55517;BME280;41724;51.176;-0.708;2023-09-19T11:27:11;100161.82;;;15.42;100.00
55517;BME280;41724;51.176;-0.708;2023-09-19T11:29:38;100148.04;;;15.70;100.00
55517;BME280;41724;51.176;-0.708;2023-09-19T11:32:06;100143.24;;;15.17;100.00
55517;BME280;41724;51.176;-0.708;2023-09-19T11:34:42;100143.67;;;15.67;99.84
55517;BME280;41724;51.176;-0.708;2023-09-19T11:38:14;100148.45;;;16.32;95.49
55517;BME280;41724;51.176;-0.708;2023-09-19T11:40:45;100146.35;;;15.84;100.00
55517;BME280;41724;51.176;-0.708;2023-09-19T11:43:30;100148.49;;;16.87;94.48
55517;BME280;41724;51.176;-0.708;2023-09-19T11:46:05;100147.36;;;16.56;95.97
55517;BME280;41724;51.176;-0.708;2023-09-19T11:48:33;100145.84;;;16.51;96.42
55517;BME280;41724;51.176;-0.708;2023-09-19T11:51:01;100142.62;;;15.91;100.00
55517;BME280;41724;51.176;-0.708;2023-09-19T11:53:37;100146.68;;;16.49;97.28
55517;BME280;41724;51.176;-0.708;2023-09-19T11:56:06;100152.39;;;16.16;100.00
55517;BME280;41724;51.176;-0.708;2023-09-19T11:58:33;100137.19;;;15.11;100.00
55517;BME280;41724;51.176;-0.708;2023-09-19T12:01:02;100152.34;;;16.03;100.00
55517;BME280;41724;51.176;-0.708;2023-09-19T12:03:31;100140.99;;;14.72;100.00
55517;BME280;41724;51.176;-0.708;2023-09-19T12:05:59;100147.61;;;15.34;100.00
55517;BME280;41724;51.176;-0.708;2023-09-19T12:08:26;100137.36;;;15.99;100.00
55517;BME280;41724;51.176;-0.708;2023-09-19T12:10:53;100133.96;;;15.92;100.00
55517;BME280;41724;51.176;-0.708;2023-09-19T12:13:20;100136.99;;;16.51;99.15
55517;BME280;41724;51.176;-0.708;2023-09-19T12:15:47;100135.99;;;16.37;99.43
55517;BME280;41724;51.176;-0.708;2023-09-19T12:18:31;100138.10;;;16.42;100.00
55517;BME280;41724;51.176;-0.708;2023-09-19T12:20:58;100139.36;;;17.11;97.15
55517;BME280;41724;51.176;-0.708;2023-09-19T12:23:24;100140.76;;;17.20;96.06
55517;BME280;41724;51.176;-0.708;2023-09-19T12:25:51;100128.54;;;16.66;100.00
55517;BME280;41724;51.176;-0.708;2023-09-19T12:28:19;100125.64;;;16.66;100.00
55517;BME280;41724;51.176;-0.708;2023-09-19T12:30:46;100125.60;;;15.56;100.00
55517;BME280;41724;51.176;-0.708;2023-09-19T12:33:16;100122.39;;;15.80;100.00
55517;BME280;41724;51.176;-0.708;2023-09-19T12:35:43;100116.47;;;15.67;100.00
55517;BME280;41724;51.176;-0.708;2023-09-19T12:38:10;100116.53;;;15.59;100.00
55517;BME280;41724;51.176;-0.708;2023-09-19T12:40:38;100120.00;;;16.71;100.00
55517;BME280;41724;51.176;-0.708;2023-09-19T12:43:07;100122.77;;;16.47;100.00
55517;BME280;41724;51.176;-0.708;2023-09-19T12:45:35;100125.30;;;16.33;100.00
55517;BME280;41724;51.176;-0.708;2023-09-19T12:48:19;100114.80;;;16.03;100.00